sensor_id;sensor_type;location;lat;lon;timestamp;P1;durP1;ratioP1;P2;durP2;ratioP2
74648;SDS011;63168;49.280;7.214;2023-04-25T00:01:36;7.35;;;4.68;;
74648;SDS011;63168;49.280;7.214;2023-04-25T00:04:03;8.63;;;5.20;;
74648;SDS011;63168;49.280;7.214;2023-04-25T00:06:30;8.52;;;4.80;;
74648;SDS011;63168;49.280;7.214;2023-04-25T00:08:56;9.05;;;5.38;;
74648;SDS011;63168;49.280;7.214;2023-04-25T00:11:22;7.57;;;4.60;;
74648;SDS011;63168;49.280;7.214;2023-04-25T00:13:47;7.75;;;4.43;;
74648;SDS011;63168;49.280;7.214;2023-04-25T00:16:14;8.70;;;4.78;;
74648;SDS011;63168;49.280;7.214;2023-04-25T00:18:42;9.25;;;5.30;;
74648;SDS011;63168;49.280;7.214;2023-04-25T00:21:07;8.60;;;5.10;;
74648;SDS011;63168;49.280;7.214;2023-04-25T00:23:33;8.13;;;4.35;;
74648;SDS011;63168;49.280;7.214;2023-04-25T00:26:01;7.47;;;4.60;;
74648;SDS011;63168;49.280;7.214;2023-04-25T00:28:27;8.03;;;4.63;;
74648;SDS011;63168;49.280;7.214;2023-04-25T00:30:52;7.35;;;4.70;;
74648;SDS011;63168;49.280;7.214;2023-04-25T00:33:18;7.80;;;4.73;;
74648;SDS011;63168;49.280;7.214;2023-04-25T00:35:45;7.80;;;4.63;;
74648;SDS011;63168;49.280;7.214;2023-04-25T00:38:10;8.40;;;5.07;;
74648;SDS011;63168;49.280;7.214;2023-04-25T00:40:35;8.30;;;4.53;;
74648;SDS011;63168;49.280;7.214;2023-04-25T00:43:01;7.47;;;4.43;;
74648;SDS011;63168;49.280;7.214;2023-04-25T00:45:27;7.68;;;4.40;;
74648;SDS011;63168;49.280;7.214;2023-04-25T00:47:54;7.43;;;4.25;;
74648;SDS011;63168;49.280;7.214;2023-04-25T00:50:20;7.60;;;4.30;;
74648;SDS011;63168;49.280;7.214;2023-04-25T00:52:46;7.80;;;4.53;;
74648;SDS011;63168;49.280;7.214;2023-04-25T00:55:12;7.20;;;4.45;;
74648;SDS011;63168;49.280;7.214;2023-04-25T00:57:38;7.35;;;4.35;;
74648;SDS011;63168;49.280;7.214;2023-04-25T01:00:05;7.38;;;4.43;;
74648;SDS011;63168;49.280;7.214;2023-04-25T01:02:31;7.07;;;4.28;;
74648;SDS011;63168;49.280;7.214;2023-04-25T01:04:57;6.85;;;3.90;;
74648;SDS011;63168;49.280;7.214;2023-04-25T01:07:23;7.33;;;4.30;;
74648;SDS011;63168;49.280;7.214;2023-04-25T01:09:50;7.93;;;4.53;;
74648;SDS011;63168;49.280;7.214;2023-04-25T01:12:16;6.75;;;4.20;;
74648;SDS011;63168;49.280;7.214;2023-04-25T01:14:42;6.80;;;4.07;;
74648;SDS011;63168;49.280;7.214;2023-04-25T01:17:08;7.70;;;4.23;;
74648;SDS011;63168;49.280;7.214;2023-04-25T01:19:34;6.57;;;4.07;;
74648;SDS011;63168;49.280;7.214;2023-04-25T01:22:02;7.63;;;4.40;;
74648;SDS011;63168;49.280;7.214;2023-04-25T01:24:28;7.80;;;4.13;;
74648;SDS011;63168;49.280;7.214;2023-04-25T01:26:54;7.28;;;4.40;;
74648;SDS011;63168;49.280;7.214;2023-04-25T01:29:21;6.55;;;4.03;;
74648;SDS011;63168;49.280;7.214;2023-04-25T01:31:48;7.22;;;4.38;;
74648;SDS011;63168;49.280;7.214;2023-04-25T01:34:14;7.85;;;4.32;;
74648;SDS011;63168;49.280;7.214;2023-04-25T01:36:40;7.63;;;3.97;;
74648;SDS011;63168;49.280;7.214;2023-04-25T01:39:07;7.05;;;4.30;;
74648;SDS011;63168;49.280;7.214;2023-04-25T01:41:33;6.97;;;3.83;;
74648;SDS011;63168;49.280;7.214;2023-04-25T01:43:59;6.88;;;3.75;;
74648;SDS011;63168;49.280;7.214;2023-04-25T01:46:25;7.40;;;4.10;;
74648;SDS011;63168;49.280;7.214;2023-04-25T01:48:50;7.10;;;4.10;;
74648;SDS011;63168;49.280;7.214;2023-04-25T01:51:16;6.87;;;3.57;;
74648;SDS011;63168;49.280;7.214;2023-04-25T01:53:42;5.93;;;3.47;;
74648;SDS011;63168;49.280;7.214;2023-04-25T01:56:09;7.75;;;4.28;;
74648;SDS011;63168;49.280;7.214;2023-04-25T01:58:35;6.82;;;3.85;;
74648;SDS011;63168;49.280;7.214;2023-04-25T02:01:00;6.40;;;3.83;;
74648;SDS011;63168;49.280;7.214;2023-04-25T02:03:26;6.70;;;3.50;;
74648;SDS011;63168;49.280;7.214;2023-04-25T02:05:51;6.70;;;3.70;;
74648;SDS011;63168;49.280;7.214;2023-04-25T02:08:17;6.55;;;4.03;;
74648;SDS011;63168;49.280;7.214;2023-04-25T02:10:43;6.27;;;3.50;;
74648;SDS011;63168;49.280;7.214;2023-04-25T02:13:10;6.40;;;3.70;;
74648;SDS011;63168;49.280;7.214;2023-04-25T02:15:35;6.28;;;3.30;;
74648;SDS011;63168;49.280;7.214;2023-04-25T02:18:01;6.50;;;3.27;;
74648;SDS011;63168;49.280;7.214;2023-04-25T02:20:27;6.18;;;3.63;;
74648;SDS011;63168;49.280;7.214;2023-04-25T02:22:53;6.20;;;3.50;;
74648;SDS011;63168;49.280;7.214;2023-04-25T02:25:19;6.82;;;3.97;;
74648;SDS011;63168;49.280;7.214;2023-04-25T02:27:45;5.65;;;3.50;;
74648;SDS011;63168;49.280;7.214;2023-04-25T02:30:12;5.83;;;3.47;;
74648;SDS011;63168;49.280;7.214;2023-04-25T02:32:38;5.97;;;3.50;;
74648;SDS011;63168;49.280;7.214;2023-04-25T02:35:04;6.13;;;3.45;;
74648;SDS011;63168;49.280;7.214;2023-04-25T02:37:30;6.47;;;3.60;;
74648;SDS011;63168;49.280;7.214;2023-04-25T02:39:55;5.53;;;3.30;;
74648;SDS011;63168;49.280;7.214;2023-04-25T02:42:21;6.47;;;3.70;;
74648;SDS011;63168;49.280;7.214;2023-04-25T02:44:46;6.43;;;3.33;;
74648;SDS011;63168;49.280;7.214;2023-04-25T02:47:13;6.97;;;3.38;;
74648;SDS011;63168;49.280;7.214;2023-04-25T02:49:39;6.00;;;3.10;;
74648;SDS011;63168;49.280;7.214;2023-04-25T02:52:05;5.27;;;3.20;;
74648;SDS011;63168;49.280;7.214;2023-04-25T02:54:30;4.70;;;2.88;;
74648;SDS011;63168;49.280;7.214;2023-04-25T02:56:56;5.60;;;3.20;;
74648;SDS011;63168;49.280;7.214;2023-04-25T02:59:21;5.47;;;3.03;;
74648;SDS011;63168;49.280;7.214;2023-04-25T03:01:47;5.60;;;3.43;;
74648;SDS011;63168;49.280;7.214;2023-04-25T03:04:14;5.50;;;3.00;;
74648;SDS011;63168;49.280;7.214;2023-04-25T03:06:39;6.03;;;3.15;;
74648;SDS011;63168;49.280;7.214;2023-04-25T03:09:04;6.00;;;3.27;;
74648;SDS011;63168;49.280;7.214;2023-04-25T03:11:30;5.10;;;3.17;;
74648;SDS011;63168;49.280;7.214;2023-04-25T03:13:55;5.75;;;3.05;;
74648;SDS011;63168;49.280;7.214;2023-04-25T03:16:21;4.90;;;3.00;;
74648;SDS011;63168;49.280;7.214;2023-04-25T03:18:46;5.70;;;2.97;;
74648;SDS011;63168;49.280;7.214;2023-04-25T03:21:13;5.78;;;3.17;;
74648;SDS011;63168;49.280;7.214;2023-04-25T03:23:40;5.15;;;2.97;;
74648;SDS011;63168;49.280;7.214;2023-04-25T03:26:05;5.50;;;3.03;;
74648;SDS011;63168;49.280;7.214;2023-04-25T03:28:31;5.32;;;3.15;;
74648;SDS011;63168;49.280;7.214;2023-04-25T03:30:56;5.03;;;3.10;;
74648;SDS011;63168;49.280;7.214;2023-04-25T03:33:22;9.97;;;3.27;;
74648;SDS011;63168;49.280;7.214;2023-04-25T03:35:47;6.53;;;3.40;;
74648;SDS011;63168;49.280;7.214;2023-04-25T03:38:14;9.02;;;3.50;;
74648;SDS011;63168;49.280;7.214;2023-04-25T03:40:39;12.13;;;4.00;;
74648;SDS011;63168;49.280;7.214;2023-04-25T03:43:05;9.38;;;4.07;;
74648;SDS011;63168;49.280;7.214;2023-04-25T03:45:30;10.03;;;3.87;;
74648;SDS011;63168;49.280;7.214;2023-04-25T03:47:56;8.53;;;4.00;;
74648;SDS011;63168;49.280;7.214;2023-04-25T03:50:21;7.17;;;3.70;;
74648;SDS011;63168;49.280;7.214;2023-04-25T03:52:46;6.45;;;3.65;;
74648;SDS011;63168;49.280;7.214;2023-04-25T03:55:13;9.43;;;3.93;;
74648;SDS011;63168;49.280;7.214;2023-04-25T03:57:38;7.43;;;3.80;;
74648;SDS011;63168;49.280;7.214;2023-04-25T04:00:04;6.50;;;3.70;;
74648;SDS011;63168;49.280;7.214;2023-04-25T04:02:31;7.25;;;3.58;;
74648;SDS011;63168;49.280;7.214;2023-04-25T04:04:58;6.07;;;3.40;;
74648;SDS011;63168;49.280;7.214;2023-04-25T04:07:23;7.93;;;3.80;;
74648;SDS011;63168;49.280;7.214;2023-04-25T04:09:48;8.02;;;3.80;;
74648;SDS011;63168;49.280;7.214;2023-04-25T04:12:15;7.17;;;3.50;;
74648;SDS011;63168;49.280;7.214;2023-04-25T04:14:40;8.35;;;3.40;;
74648;SDS011;63168;49.280;7.214;2023-04-25T04:17:06;7.73;;;3.53;;
74648;SDS011;63168;49.280;7.214;2023-04-25T04:19:31;6.77;;;3.60;;
74648;SDS011;63168;49.280;7.214;2023-04-25T04:21:57;7.18;;;3.25;;
74648;SDS011;63168;49.280;7.214;2023-04-25T04:24:22;5.83;;;3.20;;
74648;SDS011;63168;49.280;7.214;2023-04-25T04:26:49;6.82;;;3.47;;
74648;SDS011;63168;49.280;7.214;2023-04-25T04:29:17;6.80;;;3.03;;
74648;SDS011;63168;49.280;7.214;2023-04-25T04:31:46;5.95;;;3.17;;
74648;SDS011;63168;49.280;7.214;2023-04-25T04:34:12;6.35;;;3.15;;
74648;SDS011;63168;49.280;7.214;2023-04-25T04:36:37;6.27;;;3.07;;
74648;SDS011;63168;49.280;7.214;2023-04-25T04:39:05;6.10;;;3.00;;
74648;SDS011;63168;49.280;7.214;2023-04-25T04:41:30;5.60;;;3.20;;
74648;SDS011;63168;49.280;7.214;2023-04-25T04:43:56;5.37;;;3.10;;
74648;SDS011;63168;49.280;7.214;2023-04-25T04:46:22;7.22;;;3.03;;
74648;SDS011;63168;49.280;7.214;2023-04-25T04:48:49;6.00;;;3.07;;
74648;SDS011;63168;49.280;7.214;2023-04-25T04:51:15;5.80;;;3.10;;
74648;SDS011;63168;49.280;7.214;2023-04-25T04:53:40;7.27;;;3.30;;
74648;SDS011;63168;49.280;7.214;2023-04-25T04:56:06;5.83;;;3.00;;
74648;SDS011;63168;49.280;7.214;2023-04-25T04:58:31;5.63;;;2.90;;
74648;SDS011;63168;49.280;7.214;2023-04-25T05:00:56;6.50;;;2.83;;
74648;SDS011;63168;49.280;7.214;2023-04-25T05:03:23;5.53;;;3.13;;
74648;SDS011;63168;49.280;7.214;2023-04-25T05:05:49;6.30;;;3.10;;
74648;SDS011;63168;49.280;7.214;2023-04-25T05:08:14;5.93;;;3.20;;
74648;SDS011;63168;49.280;7.214;2023-04-25T05:10:39;5.78;;;3.13;;
74648;SDS011;63168;49.280;7.214;2023-04-25T05:13:05;5.90;;;2.80;;
74648;SDS011;63168;49.280;7.214;2023-04-25T05:15:30;7.03;;;3.07;;
74648;SDS011;63168;49.280;7.214;2023-04-25T05:17:55;5.70;;;3.10;;
74648;SDS011;63168;49.280;7.214;2023-04-25T05:20:22;6.10;;;3.10;;
74648;SDS011;63168;49.280;7.214;2023-04-25T05:22:48;5.35;;;2.88;;
74648;SDS011;63168;49.280;7.214;2023-04-25T05:25:13;5.63;;;2.87;;
74648;SDS011;63168;49.280;7.214;2023-04-25T05:27:38;6.20;;;3.53;;
74648;SDS011;63168;49.280;7.214;2023-04-25T05:30:05;6.40;;;2.80;;
74648;SDS011;63168;49.280;7.214;2023-04-25T05:32:31;5.22;;;2.67;;
74648;SDS011;63168;49.280;7.214;2023-04-25T05:34:56;4.87;;;2.60;;
74648;SDS011;63168;49.280;7.214;2023-04-25T05:37:23;5.70;;;2.70;;
74648;SDS011;63168;49.280;7.214;2023-04-25T05:39:48;4.55;;;2.50;;
74648;SDS011;63168;49.280;7.214;2023-04-25T05:42:14;5.30;;;2.67;;
74648;SDS011;63168;49.280;7.214;2023-04-25T05:44:39;4.75;;;2.70;;
74648;SDS011;63168;49.280;7.214;2023-04-25T05:47:04;5.77;;;2.70;;
74648;SDS011;63168;49.280;7.214;2023-04-25T05:49:30;5.53;;;2.70;;
74648;SDS011;63168;49.280;7.214;2023-04-25T05:51:55;5.30;;;2.83;;
74648;SDS011;63168;49.280;7.214;2023-04-25T05:54:22;4.55;;;2.50;;
74648;SDS011;63168;49.280;7.214;2023-04-25T05:56:47;4.60;;;2.50;;
74648;SDS011;63168;49.280;7.214;2023-04-25T05:59:13;5.32;;;2.70;;
74648;SDS011;63168;49.280;7.214;2023-04-25T06:01:38;4.97;;;2.70;;
74648;SDS011;63168;49.280;7.214;2023-04-25T06:04:04;5.57;;;2.50;;
74648;SDS011;63168;49.280;7.214;2023-04-25T06:06:29;5.40;;;2.63;;
74648;SDS011;63168;49.280;7.214;2023-04-25T06:08:55;5.18;;;2.50;;
74648;SDS011;63168;49.280;7.214;2023-04-25T06:11:21;5.13;;;2.60;;
74648;SDS011;63168;49.280;7.214;2023-04-25T06:13:47;5.25;;;2.63;;
74648;SDS011;63168;49.280;7.214;2023-04-25T06:16:12;5.27;;;2.63;;
74648;SDS011;63168;49.280;7.214;2023-04-25T06:18:38;4.93;;;2.40;;
74648;SDS011;63168;49.280;7.214;2023-04-25T06:21:03;5.20;;;2.40;;
74648;SDS011;63168;49.280;7.214;2023-04-25T06:23:29;4.60;;;2.10;;
74648;SDS011;63168;49.280;7.214;2023-04-25T06:25:54;5.78;;;2.80;;
74648;SDS011;63168;49.280;7.214;2023-04-25T06:28:21;4.83;;;2.60;;
74648;SDS011;63168;49.280;7.214;2023-04-25T06:30:47;4.47;;;2.25;;
74648;SDS011;63168;49.280;7.214;2023-04-25T06:33:12;4.97;;;2.57;;
74648;SDS011;63168;49.280;7.214;2023-04-25T06:35:37;5.47;;;2.53;;
74648;SDS011;63168;49.280;7.214;2023-04-25T06:38:03;5.00;;;2.60;;
74648;SDS011;63168;49.280;7.214;2023-04-25T06:40:28;4.43;;;2.20;;
74648;SDS011;63168;49.280;7.214;2023-04-25T06:42:54;6.37;;;2.63;;
74648;SDS011;63168;49.280;7.214;2023-04-25T06:45:20;5.17;;;2.70;;
74648;SDS011;63168;49.280;7.214;2023-04-25T06:47:46;4.53;;;2.40;;
74648;SDS011;63168;49.280;7.214;2023-04-25T06:50:11;4.47;;;2.50;;
74648;SDS011;63168;49.280;7.214;2023-04-25T06:52:36;4.70;;;2.23;;
74648;SDS011;63168;49.280;7.214;2023-04-25T06:55:02;4.60;;;2.40;;
74648;SDS011;63168;49.280;7.214;2023-04-25T06:57:28;4.60;;;2.38;;
74648;SDS011;63168;49.280;7.214;2023-04-25T06:59:54;4.20;;;2.30;;
74648;SDS011;63168;49.280;7.214;2023-04-25T07:02:21;4.50;;;2.35;;
74648;SDS011;63168;49.280;7.214;2023-04-25T07:04:47;4.18;;;2.25;;
74648;SDS011;63168;49.280;7.214;2023-04-25T07:07:12;4.47;;;2.23;;
74648;SDS011;63168;49.280;7.214;2023-04-25T07:09:38;4.30;;;2.13;;
74648;SDS011;63168;49.280;7.214;2023-04-25T07:12:03;4.13;;;2.30;;
74648;SDS011;63168;49.280;7.214;2023-04-25T07:14:29;3.90;;;2.08;;
74648;SDS011;63168;49.280;7.214;2023-04-25T07:16:55;3.90;;;2.10;;
74648;SDS011;63168;49.280;7.214;2023-04-25T07:19:24;4.40;;;2.50;;
74648;SDS011;63168;49.280;7.214;2023-04-25T07:21:51;5.45;;;2.50;;
74648;SDS011;63168;49.280;7.214;2023-04-25T07:24:16;4.82;;;2.47;;
74648;SDS011;63168;49.280;7.214;2023-04-25T07:26:42;4.37;;;2.20;;
74648;SDS011;63168;49.280;7.214;2023-04-25T07:29:07;4.73;;;2.13;;
74648;SDS011;63168;49.280;7.214;2023-04-25T07:31:33;3.88;;;2.28;;
74648;SDS011;63168;49.280;7.214;2023-04-25T07:33:58;4.30;;;2.20;;
74648;SDS011;63168;49.280;7.214;2023-04-25T07:36:25;4.00;;;2.10;;
74648;SDS011;63168;49.280;7.214;2023-04-25T07:38:51;3.73;;;1.87;;
74648;SDS011;63168;49.280;7.214;2023-04-25T07:41:16;4.47;;;2.40;;
74648;SDS011;63168;49.280;7.214;2023-04-25T07:43:42;4.17;;;2.20;;
74648;SDS011;63168;49.280;7.214;2023-04-25T07:46:07;4.20;;;2.17;;
74648;SDS011;63168;49.280;7.214;2023-04-25T07:48:33;4.10;;;2.08;;
74648;SDS011;63168;49.280;7.214;2023-04-25T07:50:58;3.93;;;2.20;;
74648;SDS011;63168;49.280;7.214;2023-04-25T07:53:25;3.80;;;1.93;;
74648;SDS011;63168;49.280;7.214;2023-04-25T07:55:50;4.38;;;2.35;;
74648;SDS011;63168;49.280;7.214;2023-04-25T07:58:16;4.30;;;2.37;;
74648;SDS011;63168;49.280;7.214;2023-04-25T08:00:46;4.55;;;2.40;;
74648;SDS011;63168;49.280;7.214;2023-04-25T08:03:11;4.23;;;2.00;;
74648;SDS011;63168;49.280;7.214;2023-04-25T08:05:37;4.07;;;2.03;;
74648;SDS011;63168;49.280;7.214;2023-04-25T08:08:02;3.97;;;1.93;;
74648;SDS011;63168;49.280;7.214;2023-04-25T08:10:29;4.07;;;2.10;;
74648;SDS011;63168;49.280;7.214;2023-04-25T08:12:55;4.20;;;2.10;;
74648;SDS011;63168;49.280;7.214;2023-04-25T08:15:20;4.15;;;2.13;;
74648;SDS011;63168;49.280;7.214;2023-04-25T08:17:45;4.20;;;2.00;;
74648;SDS011;63168;49.280;7.214;2023-04-25T08:20:11;3.93;;;2.00;;
74648;SDS011;63168;49.280;7.214;2023-04-25T08:22:37;3.70;;;1.90;;
74648;SDS011;63168;49.280;7.214;2023-04-25T08:25:02;3.97;;;1.93;;
74648;SDS011;63168;49.280;7.214;2023-04-25T08:27:30;4.32;;;2.20;;
74648;SDS011;63168;49.280;7.214;2023-04-25T08:29:55;4.55;;;2.20;;
74648;SDS011;63168;49.280;7.214;2023-04-25T08:32:21;4.15;;;2.08;;
74648;SDS011;63168;49.280;7.214;2023-04-25T08:34:46;4.20;;;2.00;;
74648;SDS011;63168;49.280;7.214;2023-04-25T08:37:12;3.80;;;2.07;;
74648;SDS011;63168;49.280;7.214;2023-04-25T08:39:37;4.10;;;2.08;;
74648;SDS011;63168;49.280;7.214;2023-04-25T08:42:05;3.60;;;1.90;;
74648;SDS011;63168;49.280;7.214;2023-04-25T08:44:36;3.97;;;2.13;;
74648;SDS011;63168;49.280;7.214;2023-04-25T08:47:02;4.07;;;1.83;;
74648;SDS011;63168;49.280;7.214;2023-04-25T08:49:29;3.85;;;1.88;;
74648;SDS011;63168;49.280;7.214;2023-04-25T08:51:56;3.25;;;1.70;;
74648;SDS011;63168;49.280;7.214;2023-04-25T08:54:24;4.15;;;2.00;;
74648;SDS011;63168;49.280;7.214;2023-04-25T08:56:54;3.95;;;2.20;;
74648;SDS011;63168;49.280;7.214;2023-04-25T08:59:20;4.03;;;2.03;;
74648;SDS011;63168;49.280;7.214;2023-04-25T09:01:48;3.67;;;2.08;;
74648;SDS011;63168;49.280;7.214;2023-04-25T09:04:14;4.90;;;2.25;;
74648;SDS011;63168;49.280;7.214;2023-04-25T09:06:40;3.63;;;1.80;;
74648;SDS011;63168;49.280;7.214;2023-04-25T09:09:07;3.70;;;1.90;;
74648;SDS011;63168;49.280;7.214;2023-04-25T09:11:34;3.80;;;1.70;;
74648;SDS011;63168;49.280;7.214;2023-04-25T09:14:11;3.83;;;1.80;;
74648;SDS011;63168;49.280;7.214;2023-04-25T09:16:50;3.42;;;1.90;;
74648;SDS011;63168;49.280;7.214;2023-04-25T09:19:23;3.83;;;1.90;;
74648;SDS011;63168;49.280;7.214;2023-04-25T09:21:50;3.97;;;1.80;;
74648;SDS011;63168;49.280;7.214;2023-04-25T09:24:15;4.25;;;2.00;;
74648;SDS011;63168;49.280;7.214;2023-04-25T09:26:41;3.73;;;1.67;;
74648;SDS011;63168;49.280;7.214;2023-04-25T09:29:06;4.23;;;1.90;;
74648;SDS011;63168;49.280;7.214;2023-04-25T09:31:32;4.45;;;2.00;;
74648;SDS011;63168;49.280;7.214;2023-04-25T09:34:00;4.40;;;2.00;;
74648;SDS011;63168;49.280;7.214;2023-04-25T09:36:26;3.30;;;1.70;;
74648;SDS011;63168;49.280;7.214;2023-04-25T09:38:53;3.50;;;1.75;;
74648;SDS011;63168;49.280;7.214;2023-04-25T09:41:22;3.73;;;1.90;;
74648;SDS011;63168;49.280;7.214;2023-04-25T09:43:48;3.15;;;1.70;;
74648;SDS011;63168;49.280;7.214;2023-04-25T09:46:14;3.30;;;1.80;;
74648;SDS011;63168;49.280;7.214;2023-04-25T09:48:40;3.53;;;1.77;;
74648;SDS011;63168;49.280;7.214;2023-04-25T09:51:14;3.42;;;1.75;;
74648;SDS011;63168;49.280;7.214;2023-04-25T09:53:40;3.40;;;1.90;;
74648;SDS011;63168;49.280;7.214;2023-04-25T09:56:07;3.33;;;1.60;;
74648;SDS011;63168;49.280;7.214;2023-04-25T09:58:34;3.50;;;1.90;;
74648;SDS011;63168;49.280;7.214;2023-04-25T10:01:02;3.63;;;1.70;;
74648;SDS011;63168;49.280;7.214;2023-04-25T10:03:29;3.60;;;1.85;;
74648;SDS011;63168;49.280;7.214;2023-04-25T10:05:55;3.22;;;1.70;;
74648;SDS011;63168;49.280;7.214;2023-04-25T10:08:25;3.47;;;1.70;;
74648;SDS011;63168;49.280;7.214;2023-04-25T10:10:56;3.30;;;1.70;;
74648;SDS011;63168;49.280;7.214;2023-04-25T10:13:23;3.67;;;1.77;;
74648;SDS011;63168;49.280;7.214;2023-04-25T10:15:49;3.50;;;1.58;;
74648;SDS011;63168;49.280;7.214;2023-04-25T10:18:17;3.35;;;1.67;;
74648;SDS011;63168;49.280;7.214;2023-04-25T10:20:44;2.90;;;1.50;;
74648;SDS011;63168;49.280;7.214;2023-04-25T10:23:11;3.93;;;1.80;;
74648;SDS011;63168;49.280;7.214;2023-04-25T10:25:41;3.40;;;1.80;;
74648;SDS011;63168;49.280;7.214;2023-04-25T10:28:07;4.00;;;1.80;;
74648;SDS011;63168;49.280;7.214;2023-04-25T10:30:32;3.70;;;1.83;;
74648;SDS011;63168;49.280;7.214;2023-04-25T10:32:58;3.13;;;1.50;;
74648;SDS011;63168;49.280;7.214;2023-04-25T10:35:24;3.63;;;1.80;;
74648;SDS011;63168;49.280;7.214;2023-04-25T10:37:58;3.00;;;1.98;;
74648;SDS011;63168;49.280;7.214;2023-04-25T10:40:24;3.80;;;1.65;;
74648;SDS011;63168;49.280;7.214;2023-04-25T10:42:52;3.20;;;1.70;;
74648;SDS011;63168;49.280;7.214;2023-04-25T10:45:19;3.95;;;1.83;;
74648;SDS011;63168;49.280;7.214;2023-04-25T10:47:45;3.33;;;1.70;;
74648;SDS011;63168;49.280;7.214;2023-04-25T10:50:11;3.00;;;1.50;;
74648;SDS011;63168;49.280;7.214;2023-04-25T10:52:38;3.58;;;1.90;;
74648;SDS011;63168;49.280;7.214;2023-04-25T10:55:05;3.70;;;1.88;;
74648;SDS011;63168;49.280;7.214;2023-04-25T10:57:31;3.58;;;1.80;;
74648;SDS011;63168;49.280;7.214;2023-04-25T11:00:06;6.10;;;2.15;;
74648;SDS011;63168;49.280;7.214;2023-04-25T11:02:37;4.03;;;1.85;;
74648;SDS011;63168;49.280;7.214;2023-04-25T11:05:03;4.80;;;2.20;;
74648;SDS011;63168;49.280;7.214;2023-04-25T11:07:33;3.90;;;1.90;;
74648;SDS011;63168;49.280;7.214;2023-04-25T11:10:02;5.07;;;2.05;;
74648;SDS011;63168;49.280;7.214;2023-04-25T11:12:29;3.78;;;1.98;;
74648;SDS011;63168;49.280;7.214;2023-04-25T11:14:58;4.85;;;1.95;;
74648;SDS011;63168;49.280;7.214;2023-04-25T11:17:26;4.70;;;2.10;;
74648;SDS011;63168;49.280;7.214;2023-04-25T11:19:51;4.38;;;1.90;;
74648;SDS011;63168;49.280;7.214;2023-04-25T11:22:16;3.27;;;1.60;;
74648;SDS011;63168;49.280;7.214;2023-04-25T11:24:42;3.90;;;1.80;;
74648;SDS011;63168;49.280;7.214;2023-04-25T11:27:08;3.97;;;1.80;;
74648;SDS011;63168;49.280;7.214;2023-04-25T11:29:34;4.93;;;2.08;;
74648;SDS011;63168;49.280;7.214;2023-04-25T11:32:00;3.45;;;1.83;;
74648;SDS011;63168;49.280;7.214;2023-04-25T11:34:27;4.30;;;2.13;;
74648;SDS011;63168;49.280;7.214;2023-04-25T11:36:56;3.30;;;1.63;;
74648;SDS011;63168;49.280;7.214;2023-04-25T11:39:23;3.67;;;1.87;;
74648;SDS011;63168;49.280;7.214;2023-04-25T11:41:49;3.38;;;2.00;;
74648;SDS011;63168;49.280;7.214;2023-04-25T11:44:16;4.13;;;1.98;;
74648;SDS011;63168;49.280;7.214;2023-04-25T11:46:42;3.55;;;1.75;;
74648;SDS011;63168;49.280;7.214;2023-04-25T11:49:07;3.72;;;1.90;;
74648;SDS011;63168;49.280;7.214;2023-04-25T11:51:39;4.33;;;2.00;;
74648;SDS011;63168;49.280;7.214;2023-04-25T11:54:05;3.70;;;1.95;;
74648;SDS011;63168;49.280;7.214;2023-04-25T11:56:30;3.37;;;1.67;;
74648;SDS011;63168;49.280;7.214;2023-04-25T11:58:58;3.85;;;1.95;;
74648;SDS011;63168;49.280;7.214;2023-04-25T12:01:28;3.38;;;1.88;;
74648;SDS011;63168;49.280;7.214;2023-04-25T12:03:55;3.75;;;1.65;;
74648;SDS011;63168;49.280;7.214;2023-04-25T12:06:20;4.43;;;2.13;;
74648;SDS011;63168;49.280;7.214;2023-04-25T12:08:59;3.70;;;1.97;;
74648;SDS011;63168;49.280;7.214;2023-04-25T12:11:26;4.00;;;1.88;;
74648;SDS011;63168;49.280;7.214;2023-04-25T12:13:51;3.60;;;1.70;;
74648;SDS011;63168;49.280;7.214;2023-04-25T12:16:18;4.17;;;1.90;;
74648;SDS011;63168;49.280;7.214;2023-04-25T12:18:43;3.37;;;1.90;;
74648;SDS011;63168;49.280;7.214;2023-04-25T12:21:09;3.87;;;1.63;;
74648;SDS011;63168;49.280;7.214;2023-04-25T12:23:34;3.60;;;1.90;;
74648;SDS011;63168;49.280;7.214;2023-04-25T12:26:05;3.50;;;1.80;;
74648;SDS011;63168;49.280;7.214;2023-04-25T12:28:31;4.05;;;1.88;;
74648;SDS011;63168;49.280;7.214;2023-04-25T12:30:58;3.47;;;1.85;;
74648;SDS011;63168;49.280;7.214;2023-04-25T12:33:27;3.58;;;1.80;;
74648;SDS011;63168;49.280;7.214;2023-04-25T12:35:54;3.70;;;1.80;;
74648;SDS011;63168;49.280;7.214;2023-04-25T12:38:20;3.28;;;1.88;;
74648;SDS011;63168;49.280;7.214;2023-04-25T12:40:46;3.88;;;1.90;;
74648;SDS011;63168;49.280;7.214;2023-04-25T12:43:13;3.97;;;2.00;;
74648;SDS011;63168;49.280;7.214;2023-04-25T12:45:38;3.25;;;1.85;;
74648;SDS011;63168;49.280;7.214;2023-04-25T12:48:04;3.78;;;2.00;;
74648;SDS011;63168;49.280;7.214;2023-04-25T12:50:29;3.43;;;1.77;;
74648;SDS011;63168;49.280;7.214;2023-04-25T12:52:55;3.85;;;1.80;;
74648;SDS011;63168;49.280;7.214;2023-04-25T12:55:20;4.00;;;2.00;;
74648;SDS011;63168;49.280;7.214;2023-04-25T12:57:46;3.97;;;1.97;;
74648;SDS011;63168;49.280;7.214;2023-04-25T13:00:13;3.50;;;2.07;;
74648;SDS011;63168;49.280;7.214;2023-04-25T13:02:39;3.35;;;1.77;;
74648;SDS011;63168;49.280;7.214;2023-04-25T13:05:06;3.10;;;1.70;;
74648;SDS011;63168;49.280;7.214;2023-04-25T13:07:32;3.38;;;1.70;;
74648;SDS011;63168;49.280;7.214;2023-04-25T13:09:57;3.55;;;1.75;;
74648;SDS011;63168;49.280;7.214;2023-04-25T13:12:22;3.80;;;1.90;;
74648;SDS011;63168;49.280;7.214;2023-04-25T13:14:48;4.10;;;2.00;;
74648;SDS011;63168;49.280;7.214;2023-04-25T13:17:15;3.72;;;1.80;;
74648;SDS011;63168;49.280;7.214;2023-04-25T13:19:40;4.00;;;1.75;;
74648;SDS011;63168;49.280;7.214;2023-04-25T13:22:05;3.13;;;1.70;;
74648;SDS011;63168;49.280;7.214;2023-04-25T13:24:31;3.50;;;1.80;;
74648;SDS011;63168;49.280;7.214;2023-04-25T13:26:56;3.03;;;1.70;;
74648;SDS011;63168;49.280;7.214;2023-04-25T13:29:21;3.07;;;1.57;;
74648;SDS011;63168;49.280;7.214;2023-04-25T13:31:47;3.30;;;1.90;;
74648;SDS011;63168;49.280;7.214;2023-04-25T13:34:14;3.20;;;1.60;;
74648;SDS011;63168;49.280;7.214;2023-04-25T13:36:40;4.00;;;1.80;;
74648;SDS011;63168;49.280;7.214;2023-04-25T13:39:05;3.00;;;1.60;;
74648;SDS011;63168;49.280;7.214;2023-04-25T13:41:31;5.27;;;1.80;;
74648;SDS011;63168;49.280;7.214;2023-04-25T13:43:56;3.17;;;1.70;;
74648;SDS011;63168;49.280;7.214;2023-04-25T13:46:22;4.82;;;1.80;;
74648;SDS011;63168;49.280;7.214;2023-04-25T13:48:47;4.37;;;1.83;;
74648;SDS011;63168;49.280;7.214;2023-04-25T13:51:15;3.58;;;1.70;;
74648;SDS011;63168;49.280;7.214;2023-04-25T13:53:42;3.43;;;1.80;;
74648;SDS011;63168;49.280;7.214;2023-04-25T13:56:08;4.15;;;1.70;;
74648;SDS011;63168;49.280;7.214;2023-04-25T13:58:33;3.60;;;1.90;;
74648;SDS011;63168;49.280;7.214;2023-04-25T14:00:58;2.77;;;1.47;;
74648;SDS011;63168;49.280;7.214;2023-04-25T14:03:24;3.08;;;1.52;;
74648;SDS011;63168;49.280;7.214;2023-04-25T14:05:50;3.30;;;1.60;;
74648;SDS011;63168;49.280;7.214;2023-04-25T14:08:17;2.70;;;1.47;;
74648;SDS011;63168;49.280;7.214;2023-04-25T14:10:43;2.92;;;1.42;;
74648;SDS011;63168;49.280;7.214;2023-04-25T14:13:08;2.87;;;1.60;;
74648;SDS011;63168;49.280;7.214;2023-04-25T14:15:33;3.40;;;1.80;;
74648;SDS011;63168;49.280;7.214;2023-04-25T14:18:00;4.20;;;1.70;;
74648;SDS011;63168;49.280;7.214;2023-04-25T14:20:26;3.50;;;1.55;;
74648;SDS011;63168;49.280;7.214;2023-04-25T14:22:51;3.73;;;1.73;;
74648;SDS011;63168;49.280;7.214;2023-04-25T14:25:20;3.03;;;1.67;;
74648;SDS011;63168;49.280;7.214;2023-04-25T14:27:46;3.13;;;1.60;;
74648;SDS011;63168;49.280;7.214;2023-04-25T14:30:14;3.42;;;1.80;;
74648;SDS011;63168;49.280;7.214;2023-04-25T14:32:40;3.47;;;1.50;;
74648;SDS011;63168;49.280;7.214;2023-04-25T14:35:06;4.63;;;1.60;;
74648;SDS011;63168;49.280;7.214;2023-04-25T14:37:32;3.33;;;1.73;;
74648;SDS011;63168;49.280;7.214;2023-04-25T14:39:57;3.50;;;1.80;;
74648;SDS011;63168;49.280;7.214;2023-04-25T14:42:24;3.40;;;1.80;;